sensor_id;sensor_type;location;lat;lon;timestamp;P1;durP1;ratioP1;P2;durP2;ratioP2
85652;SDS011;76083;49.012;8.384;2024-03-23T04:01:15;12.27;;;8.90;;
85652;SDS011;76083;49.012;8.384;2024-03-23T04:02:15;9.68;;;8.10;;
85652;SDS011;76083;49.012;8.384;2024-03-23T04:03:15;11.63;;;8.77;;
85652;SDS011;76083;49.012;8.384;2024-03-23T04:04:16;16.02;;;9.27;;
85652;SDS011;76083;49.012;8.384;2024-03-23T04:05:16;14.98;;;10.27;;
85652;SDS011;76083;49.012;8.384;2024-03-23T04:06:20;10.93;;;8.23;;
85652;SDS011;76083;49.012;8.384;2024-03-23T04:07:20;11.68;;;9.50;;
85652;SDS011;76083;49.012;8.384;2024-03-23T04:08:20;13.80;;;9.68;;
85652;SDS011;76083;49.012;8.384;2024-03-23T04:09:21;14.77;;;9.98;;
85652;SDS011;76083;49.012;8.384;2024-03-23T04:10:21;13.55;;;9.45;;
85652;SDS011;76083;49.012;8.384;2024-03-23T04:11:22;17.08;;;10.88;;
85652;SDS011;76083;49.012;8.384;2024-03-23T04:12:22;13.35;;;9.90;;
85652;SDS011;76083;49.012;8.384;2024-03-23T04:13:23;12.13;;;9.68;;
85652;SDS011;76083;49.012;8.384;2024-03-23T04:14:29;14.13;;;9.95;;
85652;SDS011;76083;49.012;8.384;2024-03-23T04:15:29;15.48;;;10.13;;
85652;SDS011;76083;49.012;8.384;2024-03-23T04:16:33;13.80;;;10.02;;
85652;SDS011;76083;49.012;8.384;2024-03-23T04:17:34;13.43;;;9.52;;
85652;SDS011;76083;49.012;8.384;2024-03-23T04:18:40;15.63;;;10.73;;
85652;SDS011;76083;49.012;8.384;2024-03-23T04:19:41;14.65;;;9.85;;
85652;SDS011;76083;49.012;8.384;2024-03-23T04:20:44;16.08;;;10.52;;
85652;SDS011;76083;49.012;8.384;2024-03-23T04:24:31;13.73;;;9.18;;
85652;SDS011;76083;49.012;8.384;2024-03-23T04:25:32;13.77;;;9.45;;
85652;SDS011;76083;49.012;8.384;2024-03-23T04:26:44;15.13;;;9.40;;
85652;SDS011;76083;49.012;8.384;2024-03-23T04:27:44;12.10;;;8.45;;
85652;SDS011;76083;49.012;8.384;2024-03-23T04:28:48;12.65;;;9.25;;
85652;SDS011;76083;49.012;8.384;2024-03-23T04:30:03;11.40;;;8.50;;
85652;SDS011;76083;49.012;8.384;2024-03-23T04:31:07;15.88;;;8.60;;
85652;SDS011;76083;49.012;8.384;2024-03-23T04:32:07;12.88;;;8.93;;
85652;SDS011;76083;49.012;8.384;2024-03-23T04:33:13;12.70;;;8.80;;
85652;SDS011;76083;49.012;8.384;2024-03-23T04:34:34;10.13;;;7.38;;
85652;SDS011;76083;49.012;8.384;2024-03-23T04:35:34;10.55;;;8.00;;
85652;SDS011;76083;49.012;8.384;2024-03-23T04:36:34;10.90;;;7.93;;
85652;SDS011;76083;49.012;8.384;2024-03-23T04:37:35;11.65;;;8.07;;
85652;SDS011;76083;49.012;8.384;2024-03-23T04:38:36;10.43;;;7.15;;
85652;SDS011;76083;49.012;8.384;2024-03-23T04:39:36;9.70;;;7.57;;
85652;SDS011;76083;49.012;8.384;2024-03-23T04:40:37;10.32;;;6.80;;
85652;SDS011;76083;49.012;8.384;2024-03-23T04:41:37;10.57;;;6.93;;
85652;SDS011;76083;49.012;8.384;2024-03-23T04:42:37;9.50;;;6.53;;
85652;SDS011;76083;49.012;8.384;2024-03-23T04:43:37;8.88;;;6.95;;
85652;SDS011;76083;49.012;8.384;2024-03-23T04:44:38;11.20;;;7.38;;
85652;SDS011;76083;49.012;8.384;2024-03-23T04:45:38;9.20;;;6.82;;
85652;SDS011;76083;49.012;8.384;2024-03-23T04:46:38;9.95;;;6.55;;
85652;SDS011;76083;49.012;8.384;2024-03-23T04:47:38;12.65;;;7.18;;
85652;SDS011;76083;49.012;8.384;2024-03-23T04:48:39;8.88;;;6.38;;
85652;SDS011;76083;49.012;8.384;2024-03-23T04:49:39;8.73;;;6.50;;
85652;SDS011;76083;49.012;8.384;2024-03-23T04:50:39;7.60;;;6.32;;
85652;SDS011;76083;49.012;8.384;2024-03-23T04:51:40;8.25;;;6.68;;
85652;SDS011;76083;49.012;8.384;2024-03-23T04:52:40;7.45;;;6.28;;
85652;SDS011;76083;49.012;8.384;2024-03-23T04:53:40;7.82;;;6.07;;
85652;SDS011;76083;49.012;8.384;2024-03-23T04:54:40;8.30;;;6.45;;
85652;SDS011;76083;49.012;8.384;2024-03-23T04:55:41;7.50;;;6.05;;
85652;SDS011;76083;49.012;8.384;2024-03-23T04:56:41;8.43;;;6.35;;
85652;SDS011;76083;49.012;8.384;2024-03-23T04:57:41;8.68;;;6.22;;
85652;SDS011;76083;49.012;8.384;2024-03-23T04:58:44;6.68;;;5.03;;
85652;SDS011;76083;49.012;8.384;2024-03-23T04:59:44;7.63;;;6.05;;
85652;SDS011;76083;49.012;8.384;2024-03-23T05:00:44;6.45;;;5.28;;
85652;SDS011;76083;49.012;8.384;2024-03-23T05:01:44;6.13;;;5.18;;
85652;SDS011;76083;49.012;8.384;2024-03-23T05:02:45;6.20;;;4.75;;
85652;SDS011;76083;49.012;8.384;2024-03-23T05:03:45;6.75;;;4.85;;
85652;SDS011;76083;49.012;8.384;2024-03-23T05:04:51;6.90;;;5.18;;
85652;SDS011;76083;49.012;8.384;2024-03-23T05:05:51;7.25;;;5.20;;
85652;SDS011;76083;49.012;8.384;2024-03-23T05:06:51;7.55;;;5.10;;
85652;SDS011;76083;49.012;8.384;2024-03-23T05:07:51;4.80;;;4.10;;
85652;SDS011;76083;49.012;8.384;2024-03-23T05:08:52;5.50;;;4.38;;
85652;SDS011;76083;49.012;8.384;2024-03-23T05:09:52;5.22;;;3.67;;
85652;SDS011;76083;49.012;8.384;2024-03-23T05:10:52;4.88;;;3.60;;
85652;SDS011;76083;49.012;8.384;2024-03-23T05:11:52;6.00;;;4.13;;
85652;SDS011;76083;49.012;8.384;2024-03-23T05:12:53;6.68;;;4.40;;
85652;SDS011;76083;49.012;8.384;2024-03-23T05:13:53;4.20;;;3.80;;
85652;SDS011;76083;49.012;8.384;2024-03-23T05:14:53;5.53;;;3.95;;
85652;SDS011;76083;49.012;8.384;2024-03-23T05:15:53;5.30;;;3.58;;
85652;SDS011;76083;49.012;8.384;2024-03-23T05:16:54;4.53;;;3.90;;
85652;SDS011;76083;49.012;8.384;2024-03-23T05:17:54;5.10;;;4.07;;
85652;SDS011;76083;49.012;8.384;2024-03-23T05:18:55;7.50;;;4.15;;
85652;SDS011;76083;49.012;8.384;2024-03-23T05:19:58;4.97;;;3.80;;
85652;SDS011;76083;49.012;8.384;2024-03-23T05:20:58;4.43;;;3.95;;
85652;SDS011;76083;49.012;8.384;2024-03-23T05:21:59;5.03;;;3.40;;
85652;SDS011;76083;49.012;8.384;2024-03-23T05:22:59;3.83;;;2.83;;
85652;SDS011;76083;49.012;8.384;2024-03-23T05:23:59;4.45;;;3.08;;
85652;SDS011;76083;49.012;8.384;2024-03-23T05:24:59;4.50;;;3.25;;
85652;SDS011;76083;49.012;8.384;2024-03-23T05:25:59;4.00;;;2.90;;
85652;SDS011;76083;49.012;8.384;2024-03-23T05:27:00;4.10;;;2.50;;
85652;SDS011;76083;49.012;8.384;2024-03-23T05:28:00;3.80;;;2.63;;
85652;SDS011;76083;49.012;8.384;2024-03-23T05:29:01;2.58;;;2.13;;
85652;SDS011;76083;49.012;8.384;2024-03-23T05:30:01;3.30;;;2.15;;
85652;SDS011;76083;49.012;8.384;2024-03-23T05:31:02;2.00;;;1.75;;
85652;SDS011;76083;49.012;8.384;2024-03-23T05:32:02;2.95;;;1.55;;
85652;SDS011;76083;49.012;8.384;2024-03-23T05:33:03;6.50;;;2.10;;
85652;SDS011;76083;49.012;8.384;2024-03-23T05:34:03;3.97;;;2.13;;
85652;SDS011;76083;49.012;8.384;2024-03-23T05:35:03;2.35;;;1.60;;
85652;SDS011;76083;49.012;8.384;2024-03-23T05:36:04;2.90;;;1.73;;
85652;SDS011;76083;49.012;8.384;2024-03-23T05:37:05;1.98;;;1.42;;
85652;SDS011;76083;49.012;8.384;2024-03-23T05:38:05;2.90;;;1.80;;
85652;SDS011;76083;49.012;8.384;2024-03-23T05:39:05;3.17;;;2.05;;
85652;SDS011;76083;49.012;8.384;2024-03-23T05:40:06;1.95;;;1.58;;
85652;SDS011;76083;49.012;8.384;2024-03-23T05:41:06;2.97;;;1.70;;
85652;SDS011;76083;49.012;8.384;2024-03-23T05:42:06;2.28;;;1.60;;
85652;SDS011;76083;49.012;8.384;2024-03-23T05:43:07;1.85;;;1.60;;
85652;SDS011;76083;49.012;8.384;2024-03-23T05:44:07;2.33;;;1.45;;
85652;SDS011;76083;49.012;8.384;2024-03-23T05:45:07;1.65;;;1.55;;
85652;SDS011;76083;49.012;8.384;2024-03-23T05:46:08;5.45;;;1.60;;
85652;SDS011;76083;49.012;8.384;2024-03-23T05:47:08;1.30;;;1.20;;
85652;SDS011;76083;49.012;8.384;2024-03-23T05:48:08;1.52;;;1.20;;
85652;SDS011;76083;49.012;8.384;2024-03-23T05:49:09;2.03;;;1.23;;
85652;SDS011;76083;49.012;8.384;2024-03-23T05:50:09;1.48;;;1.38;;
85652;SDS011;76083;49.012;8.384;2024-03-23T05:51:09;1.25;;;1.13;;
85652;SDS011;76083;49.012;8.384;2024-03-23T05:52:09;1.58;;;1.48;;
85652;SDS011;76083;49.012;8.384;2024-03-23T05:53:09;2.88;;;1.30;;
85652;SDS011;76083;49.012;8.384;2024-03-23T05:54:10;1.83;;;1.33;;
85652;SDS011;76083;49.012;8.384;2024-03-23T05:55:10;1.65;;;1.25;;
85652;SDS011;76083;49.012;8.384;2024-03-23T05:56:10;1.98;;;1.20;;
85652;SDS011;76083;49.012;8.384;2024-03-23T05:57:10;1.42;;;1.27;;
85652;SDS011;76083;49.012;8.384;2024-03-23T05:58:11;1.65;;;1.20;;
85652;SDS011;76083;49.012;8.384;2024-03-23T05:59:11;1.00;;;1.00;;
85652;SDS011;76083;49.012;8.384;2024-03-23T06:00:11;2.95;;;1.40;;
85652;SDS011;76083;49.012;8.384;2024-03-23T06:01:12;1.23;;;1.10;;
85652;SDS011;76083;49.012;8.384;2024-03-23T06:02:12;1.35;;;1.10;;
85652;SDS011;76083;49.012;8.384;2024-03-23T06:03:12;1.85;;;1.05;;
85652;SDS011;76083;49.012;8.384;2024-03-23T06:04:13;2.22;;;1.33;;
85652;SDS011;76083;49.012;8.384;2024-03-23T06:05:13;0.98;;;0.88;;
85652;SDS011;76083;49.012;8.384;2024-03-23T06:06:16;0.98;;;0.95;;
85652;SDS011;76083;49.012;8.384;2024-03-23T06:07:16;0.80;;;0.80;;
85652;SDS011;76083;49.012;8.384;2024-03-23T06:08:16;0.95;;;0.93;;
85652;SDS011;76083;49.012;8.384;2024-03-23T06:09:17;1.00;;;1.00;;
85652;SDS011;76083;49.012;8.384;2024-03-23T06:10:18;2.03;;;1.38;;
85652;SDS011;76083;49.012;8.384;2024-03-23T06:11:18;2.28;;;0.80;;
85652;SDS011;76083;49.012;8.384;2024-03-23T06:12:18;2.70;;;1.13;;
85652;SDS011;76083;49.012;8.384;2024-03-23T06:13:20;1.05;;;0.98;;
85652;SDS011;76083;49.012;8.384;2024-03-23T06:14:20;0.70;;;0.70;;
85652;SDS011;76083;49.012;8.384;2024-03-23T06:15:20;2.17;;;0.90;;
85652;SDS011;76083;49.012;8.384;2024-03-23T06:16:21;0.80;;;0.80;;
85652;SDS011;76083;49.012;8.384;2024-03-23T06:17:21;1.95;;;0.82;;
85652;SDS011;76083;49.012;8.384;2024-03-23T06:18:21;2.15;;;1.25;;
85652;SDS011;76083;49.012;8.384;2024-03-23T06:19:22;0.90;;;0.90;;
85652;SDS011;76083;49.012;8.384;2024-03-23T06:20:22;1.95;;;0.80;;
85652;SDS011;76083;49.012;8.384;2024-03-23T06:21:26;0.82;;;0.82;;
85652;SDS011;76083;49.012;8.384;2024-03-23T06:22:29;1.80;;;0.80;;
85652;SDS011;76083;49.012;8.384;2024-03-23T06:23:29;0.80;;;0.80;;
85652;SDS011;76083;49.012;8.384;2024-03-23T06:24:29;0.60;;;0.57;;
85652;SDS011;76083;49.012;8.384;2024-03-23T06:25:29;1.02;;;0.75;;
85652;SDS011;76083;49.012;8.384;2024-03-23T06:26:30;1.38;;;1.00;;
85652;SDS011;76083;49.012;8.384;2024-03-23T06:27:30;1.42;;;1.10;;
85652;SDS011;76083;49.012;8.384;2024-03-23T06:28:30;0.80;;;0.80;;
85652;SDS011;76083;49.012;8.384;2024-03-23T06:29:30;1.02;;;0.80;;
85652;SDS011;76083;49.012;8.384;2024-03-23T06:30:31;1.65;;;0.80;;
85652;SDS011;76083;49.012;8.384;2024-03-23T06:31:31;1.70;;;0.82;;
85652;SDS011;76083;49.012;8.384;2024-03-23T06:32:31;0.95;;;0.60;;
85652;SDS011;76083;49.012;8.384;2024-03-23T06:33:32;1.70;;;0.70;;
85652;SDS011;76083;49.012;8.384;2024-03-23T06:34:32;0.60;;;0.60;;
85652;SDS011;76083;49.012;8.384;2024-03-23T06:35:32;0.93;;;0.60;;
85652;SDS011;76083;49.012;8.384;2024-03-23T06:36:32;1.15;;;1.00;;
85652;SDS011;76083;49.012;8.384;2024-03-23T06:37:33;0.77;;;0.75;;
85652;SDS011;76083;49.012;8.384;2024-03-23T06:38:33;0.70;;;0.70;;
85652;SDS011;76083;49.012;8.384;2024-03-23T06:39:33;1.08;;;0.80;;
85652;SDS011;76083;49.012;8.384;2024-03-23T06:40:35;0.95;;;0.85;;
85652;SDS011;76083;49.012;8.384;2024-03-23T06:41:36;0.88;;;0.55;;
85652;SDS011;76083;49.012;8.384;2024-03-23T06:42:36;0.70;;;0.70;;
85652;SDS011;76083;49.012;8.384;2024-03-23T06:43:37;0.80;;;0.77;;
85652;SDS011;76083;49.012;8.384;2024-03-23T06:44:37;0.82;;;0.68;;
85652;SDS011;76083;49.012;8.384;2024-03-23T06:45:37;0.65;;;0.65;;
85652;SDS011;76083;49.012;8.384;2024-03-23T06:46:37;0.73;;;0.73;;
85652;SDS011;76083;49.012;8.384;2024-03-23T06:47:38;0.70;;;0.60;;
85652;SDS011;76083;49.012;8.384;2024-03-23T06:48:38;0.93;;;0.75;;
85652;SDS011;76083;49.012;8.384;2024-03-23T06:49:38;1.00;;;0.68;;
85652;SDS011;76083;49.012;8.384;2024-03-23T06:50:38;0.90;;;0.80;;
85652;SDS011;76083;49.012;8.384;2024-03-23T06:51:38;1.13;;;0.90;;
85652;SDS011;76083;49.012;8.384;2024-03-23T06:52:39;0.90;;;0.80;;
85652;SDS011;76083;49.012;8.384;2024-03-23T06:53:39;0.80;;;0.77;;
85652;SDS011;76083;49.012;8.384;2024-03-23T06:54:39;0.80;;;0.80;;
85652;SDS011;76083;49.012;8.384;2024-03-23T06:55:40;0.60;;;0.60;;
85652;SDS011;76083;49.012;8.384;2024-03-23T06:56:40;0.63;;;0.60;;
85652;SDS011;76083;49.012;8.384;2024-03-23T06:58:55;0.77;;;0.70;;
85652;SDS011;76083;49.012;8.384;2024-03-23T06:59:59;0.65;;;0.65;;
85652;SDS011;76083;49.012;8.384;2024-03-23T07:00:59;0.75;;;0.75;;
85652;SDS011;76083;49.012;8.384;2024-03-23T07:01:59;0.75;;;0.75;;
85652;SDS011;76083;49.012;8.384;2024-03-23T07:03:00;0.55;;;0.55;;
85652;SDS011;76083;49.012;8.384;2024-03-23T07:04:00;0.73;;;0.73;;
85652;SDS011;76083;49.012;8.384;2024-03-23T07:05:03;1.15;;;0.60;;
85652;SDS011;76083;49.012;8.384;2024-03-23T07:06:14;0.50;;;0.50;;
85652;SDS011;76083;49.012;8.384;2024-03-23T07:07:14;0.65;;;0.52;;
85652;SDS011;76083;49.012;8.384;2024-03-23T07:08:15;0.60;;;0.60;;
85652;SDS011;76083;49.012;8.384;2024-03-23T07:09:15;0.85;;;0.60;;
85652;SDS011;76083;49.012;8.384;2024-03-23T07:10:18;2.28;;;0.60;;
85652;SDS011;76083;49.012;8.384;2024-03-23T07:11:19;0.40;;;0.40;;
85652;SDS011;76083;49.012;8.384;2024-03-23T07:12:20;0.60;;;0.60;;
85652;SDS011;76083;49.012;8.384;2024-03-23T07:13:41;0.50;;;0.47;;
85652;SDS011;76083;49.012;8.384;2024-03-23T07:15:41;0.50;;;0.50;;
85652;SDS011;76083;49.012;8.384;2024-03-23T07:16:42;0.70;;;0.60;;
85652;SDS011;76083;49.012;8.384;2024-03-23T07:17:42;0.50;;;0.50;;
85652;SDS011;76083;49.012;8.384;2024-03-23T07:18:49;0.60;;;0.60;;
85652;SDS011;76083;49.012;8.384;2024-03-23T07:19:50;0.40;;;0.40;;
85652;SDS011;76083;49.012;8.384;2024-03-23T07:20:56;0.52;;;0.52;;
85652;SDS011;76083;49.012;8.384;2024-03-23T07:21:57;1.30;;;0.30;;
85652;SDS011;76083;49.012;8.384;2024-03-23T07:22:58;0.50;;;0.50;;
85652;SDS011;76083;49.012;8.384;2024-03-23T07:23:58;0.60;;;0.60;;
85652;SDS011;76083;49.012;8.384;2024-03-23T07:25:01;0.57;;;0.47;;
85652;SDS011;76083;49.012;8.384;2024-03-23T07:26:02;0.50;;;0.50;;
85652;SDS011;76083;49.012;8.384;2024-03-23T07:27:04;0.50;;;0.50;;
85652;SDS011;76083;49.012;8.384;2024-03-23T07:28:04;0.50;;;0.50;;
85652;SDS011;76083;49.012;8.384;2024-03-23T07:29:05;0.40;;;0.40;;
85652;SDS011;76083;49.012;8.384;2024-03-23T07:30:06;0.40;;;0.40;;
85652;SDS011;76083;49.012;8.384;2024-03-23T07:31:07;0.47;;;0.45;;
85652;SDS011;76083;49.012;8.384;2024-03-23T07:32:09;0.50;;;0.50;;
85652;SDS011;76083;49.012;8.384;2024-03-23T07:33:09;0.50;;;0.50;;
85652;SDS011;76083;49.012;8.384;2024-03-23T07:34:11;0.75;;;0.73;;
85652;SDS011;76083;49.012;8.384;2024-03-23T07:35:11;0.50;;;0.50;;
85652;SDS011;76083;49.012;8.384;2024-03-23T07:36:12;0.47;;;0.47;;
85652;SDS011;76083;49.012;8.384;2024-03-23T07:37:13;1.20;;;0.40;;
85652;SDS011;76083;49.012;8.384;2024-03-23T07:38:15;0.40;;;0.40;;
85652;SDS011;76083;49.012;8.384;2024-03-23T07:39:15;0.80;;;0.60;;
85652;SDS011;76083;49.012;8.384;2024-03-23T07:40:15;0.52;;;0.52;;
85652;SDS011;76083;49.012;8.384;2024-03-23T07:41:18;0.60;;;0.60;;
85652;SDS011;76083;49.012;8.384;2024-03-23T07:42:19;1.85;;;0.77;;
85652;SDS011;76083;49.012;8.384;2024-03-23T07:43:20;0.80;;;0.60;;
85652;SDS011;76083;49.012;8.384;2024-03-23T07:44:20;1.08;;;0.70;;
85652;SDS011;76083;49.012;8.384;2024-03-23T07:45:20;0.73;;;0.60;;
85652;SDS011;76083;49.012;8.384;2024-03-23T07:46:27;1.27;;;1.10;;
85652;SDS011;76083;49.012;8.384;2024-03-23T07:47:28;0.73;;;0.57;;
85652;SDS011;76083;49.012;8.384;2024-03-23T07:48:28;0.60;;;0.60;;
85652;SDS011;76083;49.012;8.384;2024-03-23T07:49:28;0.60;;;0.60;;
85652;SDS011;76083;49.012;8.384;2024-03-23T07:50:28;0.52;;;0.52;;
85652;SDS011;76083;49.012;8.384;2024-03-23T07:51:29;1.10;;;1.00;;
85652;SDS011;76083;49.012;8.384;2024-03-23T07:52:29;0.77;;;0.77;;
85652;SDS011;76083;49.012;8.384;2024-03-23T07:53:31;0.90;;;0.90;;
85652;SDS011;76083;49.012;8.384;2024-03-23T07:54:32;0.70;;;0.70;;
85652;SDS011;76083;49.012;8.384;2024-03-23T07:55:32;0.57;;;0.57;;
85652;SDS011;76083;49.012;8.384;2024-03-23T07:56:35;0.68;;;0.68;;
85652;SDS011;76083;49.012;8.384;2024-03-23T07:57:35;0.80;;;0.60;;
85652;SDS011;76083;49.012;8.384;2024-03-23T07:58:35;0.77;;;0.70;;
85652;SDS011;76083;49.012;8.384;2024-03-23T07:59:36;0.65;;;0.50;;
85652;SDS011;76083;49.012;8.384;2024-03-23T08:00:39;0.77;;;0.77;;
85652;SDS011;76083;49.012;8.384;2024-03-23T08:01:40;1.70;;;0.77;;
85652;SDS011;76083;49.012;8.384;2024-03-23T08:02:40;0.80;;;0.80;;
85652;SDS011;76083;49.012;8.384;2024-03-23T08:03:41;0.63;;;0.63;;
85652;SDS011;76083;49.012;8.384;2024-03-23T08:04:43;1.48;;;0.73;;
85652;SDS011;76083;49.012;8.384;2024-03-23T08:05:43;0.70;;;0.70;;
85652;SDS011;76083;49.012;8.384;2024-03-23T08:06:43;0.57;;;0.57;;
85652;SDS011;76083;49.012;8.384;2024-03-23T08:07:43;0.70;;;0.70;;
85652;SDS011;76083;49.012;8.384;2024-03-23T08:08:44;0.68;;;0.68;;
85652;SDS011;76083;49.012;8.384;2024-03-23T08:09:48;1.70;;;0.80;;
85652;SDS011;76083;49.012;8.384;2024-03-23T08:10:52;0.90;;;0.90;;
85652;SDS011;76083;49.012;8.384;2024-03-23T08:11:52;1.48;;;0.93;;
85652;SDS011;76083;49.012;8.384;2024-03-23T08:12:52;1.17;;;1.08;;
85652;SDS011;76083;49.012;8.384;2024-03-23T08:13:53;0.75;;;0.75;;
85652;SDS011;76083;49.012;8.384;2024-03-23T08:14:53;1.42;;;1.23;;
85652;SDS011;76083;49.012;8.384;2024-03-23T08:16:00;1.92;;;1.30;;
85652;SDS011;76083;49.012;8.384;2024-03-23T08:17:01;2.28;;;1.55;;
85652;SDS011;76083;49.012;8.384;2024-03-23T08:18:01;3.50;;;1.80;;
85652;SDS011;76083;49.012;8.384;2024-03-23T08:19:04;2.63;;;1.48;;
85652;SDS011;76083;49.012;8.384;2024-03-23T08:20:05;1.48;;;1.35;;
85652;SDS011;76083;49.012;8.384;2024-03-23T08:21:09;1.52;;;1.10;;
85652;SDS011;76083;49.012;8.384;2024-03-23T08:22:09;3.85;;;1.23;;
85652;SDS011;76083;49.012;8.384;2024-03-23T08:23:09;2.50;;;1.58;;
85652;SDS011;76083;49.012;8.384;2024-03-23T08:24:09;2.67;;;1.67;;
85652;SDS011;76083;49.012;8.384;2024-03-23T08:25:10;2.45;;;1.45;;
85652;SDS011;76083;49.012;8.384;2024-03-23T08:26:52;3.33;;;1.70;;
85652;SDS011;76083;49.012;8.384;2024-03-23T08:27:36;4.22;;;1.88;;
85652;SDS011;76083;49.012;8.384;2024-03-23T08:28:36;7.95;;;2.45;;
85652;SDS011;76083;49.012;8.384;2024-03-23T08:29:38;3.75;;;2.00;;
85652;SDS011;76083;49.012;8.384;2024-03-23T08:30:39;4.57;;;2.05;;
85652;SDS011;76083;49.012;8.384;2024-03-23T08:31:39;6.82;;;2.33;;
85652;SDS011;76083;49.012;8.384;2024-03-23T08:32:42;6.75;;;2.35;;
85652;SDS011;76083;49.012;8.384;2024-03-23T08:33:42;5.35;;;2.30;;
85652;SDS011;76083;49.012;8.384;2024-03-23T08:34:42;5.45;;;2.45;;
85652;SDS011;76083;49.012;8.384;2024-03-23T08:35:43;6.35;;;3.17;;
85652;SDS011;76083;49.012;8.384;2024-03-23T08:37:53;7.07;;;3.17;;
85652;SDS011;76083;49.012;8.384;2024-03-23T08:38:54;5.32;;;2.78;;
85652;SDS011;76083;49.012;8.384;2024-03-23T08:39:54;5.32;;;3.05;;
85652;SDS011;76083;49.012;8.384;2024-03-23T08:41:02;4.60;;;2.80;;
85652;SDS011;76083;49.012;8.384;2024-03-23T08:42:06;7.82;;;2.83;;
85652;SDS011;76083;49.012;8.384;2024-03-23T08:43:07;6.40;;;3.10;;
85652;SDS011;76083;49.012;8.384;2024-03-23T08:44:07;8.25;;;2.95;;
85652;SDS011;76083;49.012;8.384;2024-03-23T08:45:07;4.38;;;2.60;;
85652;SDS011;76083;49.012;8.384;2024-03-23T08:46:11;5.28;;;2.63;;
85652;SDS011;76083;49.012;8.384;2024-03-23T08:47:13;8.73;;;2.95;;
85652;SDS011;76083;49.012;8.384;2024-03-23T08:48:20;4.65;;;2.60;;
85652;SDS011;76083;49.012;8.384;2024-03-23T08:49:23;4.95;;;2.95;;
85652;SDS011;76083;49.012;8.384;2024-03-23T08:50:23;7.93;;;3.55;;
85652;SDS011;76083;49.012;8.384;2024-03-23T08:51:24;6.28;;;2.80;;
85652;SDS011;76083;49.012;8.384;2024-03-23T08:52:24;7.18;;;3.10;;
85652;SDS011;76083;49.012;8.384;2024-03-23T08:53:24;6.85;;;3.05;;
85652;SDS011;76083;49.012;8.384;2024-03-23T08:54:27;6.00;;;3.08;;
85652;SDS011;76083;49.012;8.384;2024-03-23T08:55:27;12.52;;;2.70;;
85652;SDS011;76083;49.012;8.384;2024-03-23T08:56:28;5.68;;;2.90;;
85652;SDS011;76083;49.012;8.384;2024-03-23T08:57:28;7.03;;;2.65;;
85652;SDS011;76083;49.012;8.384;2024-03-23T08:58:28;7.90;;;3.75;;
85652;SDS011;76083;49.012;8.384;2024-03-23T08:59:30;6.13;;;2.95;;
85652;SDS011;76083;49.012;8.384;2024-03-23T09:00:33;9.25;;;2.88;;
85652;SDS011;76083;49.012;8.384;2024-03-23T09:02:50;5.70;;;2.67;;
85652;SDS011;76083;49.012;8.384;2024-03-23T09:03:50;7.25;;;3.45;;
85652;SDS011;76083;49.012;8.384;2024-03-23T09:04:50;5.82;;;2.95;;
85652;SDS011;76083;49.012;8.384;2024-03-23T09:05:51;5.45;;;2.83;;
85652;SDS011;76083;49.012;8.384;2024-03-23T09:06:52;4.38;;;2.50;;
85652;SDS011;76083;49.012;8.384;2024-03-23T09:07:52;10.43;;;3.50;;
85652;SDS011;76083;49.012;8.384;2024-03-23T09:08:52;5.93;;;3.30;;
85652;SDS011;76083;49.012;8.384;2024-03-23T09:09:53;4.32;;;2.63;;
85652;SDS011;76083;49.012;8.384;2024-03-23T09:10:54;7.07;;;3.35;;
85652;SDS011;76083;49.012;8.384;2024-03-23T09:11:54;8.73;;;3.00;;
85652;SDS011;76083;49.012;8.384;2024-03-23T09:12:54;8.10;;;2.95;;
85652;SDS011;76083;49.012;8.384;2024-03-23T09:13:57;6.60;;;3.08;;
85652;SDS011;76083;49.012;8.384;2024-03-23T09:14:58;8.95;;;3.03;;
85652;SDS011;76083;49.012;8.384;2024-03-23T09:15:58;6.80;;;2.75;;
85652;SDS011;76083;49.012;8.384;2024-03-23T09:17:01;5.75;;;2.92;;
85652;SDS011;76083;49.012;8.384;2024-03-23T09:18:02;8.00;;;3.45;;
85652;SDS011;76083;49.012;8.384;2024-03-23T09:19:02;5.20;;;2.58;;
85652;SDS011;76083;49.012;8.384;2024-03-23T09:20:03;7.80;;;3.03;;
85652;SDS011;76083;49.012;8.384;2024-03-23T09:21:03;5.38;;;2.72;;
85652;SDS011;76083;49.012;8.384;2024-03-23T09:22:10;5.35;;;2.58;;
85652;SDS011;76083;49.012;8.384;2024-03-23T09:23:11;4.55;;;2.75;;
85652;SDS011;76083;49.012;8.384;2024-03-23T09:24:11;5.23;;;2.73;;
85652;SDS011;76083;49.012;8.384;2024-03-23T09:25:12;5.10;;;2.65;;
85652;SDS011;76083;49.012;8.384;2024-03-23T09:26:12;5.15;;;2.25;;
85652;SDS011;76083;49.012;8.384;2024-03-23T09:27:13;5.53;;;2.92;;
85652;SDS011;76083;49.012;8.384;2024-03-23T09:28:13;6.57;;;3.03;;
85652;SDS011;76083;49.012;8.384;2024-03-23T09:29:13;5.22;;;2.58;;
85652;SDS011;76083;49.012;8.384;2024-03-23T09:30:15;8.52;;;3.10;;
85652;SDS011;76083;49.012;8.384;2024-03-23T09:31:15;6.78;;;2.67;;
85652;SDS011;76083;49.012;8.384;2024-03-23T09:32:16;5.30;;;2.50;;
85652;SDS011;76083;49.012;8.384;2024-03-23T09:33:16;5.28;;;2.70;;
85652;SDS011;76083;49.012;8.384;2024-03-23T09:34:16;5.57;;;2.78;;
85652;SDS011;76083;49.012;8.384;2024-03-23T09:35:16;6.65;;;2.92;;
85652;SDS011;76083;49.012;8.384;2024-03-23T09:36:17;6.50;;;2.72;;
85652;SDS011;76083;49.012;8.384;2024-03-23T09:37:17;6.78;;;2.75;;
85652;SDS011;76083;49.012;8.384;2024-03-23T09:38:17;10.20;;;3.45;;
85652;SDS011;76083;49.012;8.384;2024-03-23T09:39:18;6.15;;;2.40;;
85652;SDS011;76083;49.012;8.384;2024-03-23T09:40:18;5.03;;;3.10;;
85652;SDS011;76083;49.012;8.384;2024-03-23T09:41:22;6.03;;;2.85;;
85652;SDS011;76083;49.012;8.384;2024-03-23T09:42:26;6.07;;;2.45;;
85652;SDS011;76083;49.012;8.384;2024-03-23T09:43:26;6.13;;;3.05;;
85652;SDS011;76083;49.012;8.384;2024-03-23T09:44:29;6.90;;;3.20;;
85652;SDS011;76083;49.012;8.384;2024-03-23T09:45:39;6.72;;;2.90;;
85652;SDS011;76083;49.012;8.384;2024-03-23T09:46:39;7.60;;;3.08;;
85652;SDS011;76083;49.012;8.384;2024-03-23T09:47:40;6.57;;;3.53;;
85652;SDS011;76083;49.012;8.384;2024-03-23T09:48:41;7.63;;;3.58;;
85652;SDS011;76083;49.012;8.384;2024-03-23T09:49:43;6.55;;;3.00;;
85652;SDS011;76083;49.012;8.384;2024-03-23T09:50:44;6.35;;;3.25;;
85652;SDS011;76083;49.012;8.384;2024-03-23T09:51:45;9.15;;;3.83;;
85652;SDS011;76083;49.012;8.384;2024-03-23T09:52:45;5.47;;;2.90;;
85652;SDS011;76083;49.012;8.384;2024-03-23T09:53:49;6.50;;;3.35;;
85652;SDS011;76083;49.012;8.384;2024-03-23T09:54:56;7.30;;;3.42;;
85652;SDS011;76083;49.012;8.384;2024-03-23T09:56:06;6.78;;;3.83;;
85652;SDS011;76083;49.012;8.384;2024-03-23T09:57:07;6.70;;;3.10;;
85652;SDS011;76083;49.012;8.384;2024-03-23T09:58:08;8.02;;;3.22;;
85652;SDS011;76083;49.012;8.384;2024-03-23T09:59:12;6.28;;;3.22;;
85652;SDS011;76083;49.012;8.384;2024-03-23T10:00:13;7.55;;;2.80;;
85652;SDS011;76083;49.012;8.384;2024-03-23T10:01:13;6.95;;;2.90;;
85652;SDS011;76083;49.012;8.384;2024-03-23T10:02:17;10.25;;;4.05;;
85652;SDS011;76083;49.012;8.384;2024-03-23T10:03:17;6.75;;;3.53;;
85652;SDS011;76083;49.012;8.384;2024-03-23T10:04:35;8.63;;;3.72;;
85652;SDS011;76083;49.012;8.384;2024-03-23T10:05:36;10.40;;;3.80;;
85652;SDS011;76083;49.012;8.384;2024-03-23T10:06:43;13.77;;;3.65;;
85652;SDS011;76083;49.012;8.384;2024-03-23T10:07:43;9.30;;;3.80;;
85652;SDS011;76083;49.012;8.384;2024-03-23T10:08:43;6.82;;;3.80;;
85652;SDS011;76083;49.012;8.384;2024-03-23T10:09:45;10.05;;;3.25;;
85652;SDS011;76083;49.012;8.384;2024-03-23T10:10:48;8.20;;;3.95;;
85652;SDS011;76083;49.012;8.384;2024-03-23T10:11:49;7.60;;;3.15;;
85652;SDS011;76083;49.012;8.384;2024-03-23T10:12:49;8.60;;;3.75;;
85652;SDS011;76083;49.012;8.384;2024-03-23T10:13:50;7.75;;;3.40;;
85652;SDS011;76083;49.012;8.384;2024-03-23T10:14:53;12.00;;;3.88;;
85652;SDS011;76083;49.012;8.384;2024-03-23T10:15:57;5.57;;;3.75;;
85652;SDS011;76083;49.012;8.384;2024-03-23T10:17:14;8.30;;;3.97;;